Погода Лаврас да Мангабейрана неделю

Сеара, Бразилия

16 - 22 июля
  • 16июля
    Сегодня
    +21°
    +34°
    Ясно и безоблачно
    ВремяПогодаТемператураВлажностьДавлениеВетер, м/сВероятность осадков
    00:00Ясно и безоблачно+25°C65 %745 мм5.1 м/с5 %
    03:00Ясно и безоблачно+23°C78 %744 мм3.8 м/с2 %
    06:00Ясно и безоблачно+21°C84 %745 мм3.5 м/с5 %
    09:00Ясно и безоблачно+26°C52 %746 мм7.0 м/с4 %
    12:00Практически безоблачно+30°C28 %744 мм7.2 м/с5 %
    15:00Ясно и безоблачно+34°C26 %743 мм5.9 м/с5 %
    18:00Облачно с прояснениями+31°C35 %743 мм4.5 м/с5 %
    21:00Практически безоблачно+27°C49 %745 мм5.0 м/с2 %
  • 17июля
    Среда
    +21°
    +34°
    Практически безоблачно
    ВремяПогодаТемператураВлажностьДавлениеВетер, м/сВероятность осадков
    00:00Практически безоблачно+26°C64 %746 мм4.7 м/с6 %
    03:00Ясно и безоблачно+23°C75 %745 мм3.9 м/с1 %
    06:00Ясно и безоблачно+22°C81 %745 мм3.6 м/с2 %
    09:00Небольшая облачность+26°C54 %746 мм6.7 м/с6 %
    12:00Практически безоблачно+30°C34 %744 мм6.1 м/с3 %
    15:00Практически безоблачно+33°C26 %742 мм4.3 м/с2 %
    18:00Практически безоблачно+31°C32 %742 мм2.0 м/с5 %
    21:00Практически безоблачно+28°C47 %744 мм6.3 м/с5 %
  • 18июля
    Четверг
    +22°
    +34°
    Небольшая облачность
    ВремяПогодаТемператураВлажностьДавлениеВетер, м/сВероятность осадков
    00:00Практически безоблачно+26°C62 %744 мм5.3 м/с11 %
    03:00Ясно и безоблачно+23°C71 %743 мм5.3 м/с3 %
    06:00Ясно и безоблачно+22°C75 %744 мм4.6 м/с5 %
    09:00Ясно и безоблачно+26°C52 %745 мм6.1 м/с5 %
    12:00Ясно и безоблачно+30°C34 %744 мм5.1 м/с2 %
    15:00Небольшая облачность+34°C27 %741 мм2.9 м/с5 %
    18:00Облачно с прояснениями+32°C30 %742 мм2.8 м/с5 %
    21:00Пасмурно, сплошная облачность+28°C37 %744 мм4.6 м/с5 %
  • 19июля
    Пятница
    +21°
    +36°
    Облачно с прояснениями
    ВремяПогодаТемператураВлажностьДавлениеВетер, м/сВероятность осадков
    00:00Ясно и безоблачно+26°C60 %745 мм4.7 м/с11 %
    03:00Ясно и безоблачно+24°C73 %744 мм5.0 м/с3 %
    06:00Ясно и безоблачно+22°C79 %745 мм4.5 м/с5 %
    09:00Ясно и безоблачно+27°C56 %746 мм5.5 м/с5 %
    12:00Практически безоблачно+31°C34 %744 мм5.7 м/с5 %
    15:00Облачно с прояснениями+35°C27 %742 мм5.9 м/с5 %
    18:00Ясно и безоблачно+32°C35 %743 мм4.3 м/с5 %
    21:00Ясно и безоблачно+28°C49 %744 мм6.8 м/с11 %
  • 20июля
    Суббота
    +21°
    +34°
    Практически безоблачно
    ВремяПогодаТемператураВлажностьДавлениеВетер, м/сВероятность осадков
    00:00Практически безоблачно+26°C65 %745 мм5.7 м/с37 %
    03:00Ясно и безоблачно+23°C72 %744 мм5.7 м/с12 %
    06:00Ясно и безоблачно+22°C75 %745 мм4.9 м/с6 %
    09:00Ясно и безоблачно+26°C55 %746 мм6.5 м/с5 %
    12:00Практически безоблачно+31°C33 %744 мм5.6 м/с4 %
    15:00Практически безоблачно+33°C28 %742 мм5.2 м/с5 %
    18:00Пасмурно, сплошная облачность+31°C38 %743 мм4.8 м/с5 %
    21:00Небольшая облачность+27°C53 %745 мм6.5 м/с28 %
Мы используем cookies
Соглашаюсь